Date,TemperatureHighF,TemperatureAvgF,TemperatureLowF,DewpointHighF,DewpointAvgF,DewpointLowF,HumidityHigh,HumidityAvg,HumidityLow,PressureMaxIn,PressureMinIn,WindSpeedMaxMPH,WindSpeedAvgMPH,GustSpeedMaxMPH,PrecipitationSumIn
2013-1-16,34.0,33.0,32.0,31.0,30.0,29.0,90,89,89,29.88,29.84,3,1,6,0.00
2013-1-17,41.0,35.4,32.0,32.0,29.9,28.0,90,80,69,30.04,29.88,6,2,10,0.00
2013-1-18,35.0,28.5,24.0,28.0,16.5,11.0,82,62,42,30.40,29.96,6,3,12,0.00
2013-1-19,51.0,38.4,27.0,30.0,23.8,14.0,68,56,43,30.24,29.79,6,2,16,0.00
2013-1-20,48.0,39.6,25.0,32.0,22.5,12.0,60,51,35,30.01,29.63,14,3,22,0.00
2013-1-21,28.0,24.2,19.0,18.0,13.1,8.0,75,62,56,30.01,29.83,6,3,10,0.00
2013-1-22,21.0,14.9,9.0,8.0,1.7,-4.0,65,55,44,30.14,29.83,9,5,20,0.00
2013-1-23,21.0,12.6,8.0,7.0,1.8,-3.0,69,62,50,30.17,30.06,7,2,12,0.00
2013-1-24,27.0,18.0,13.0,12.0,5.5,1.0,76,59,39,30.39,30.01,6,2,9,0.00
2013-1-25,20.0,15.1,12.0,12.0,5.2,1.0,74,64,58,30.38,30.04,3,1,7,0.00
2013-1-26,23.0,21.9,21.0,12.0,11.3,11.0,64,63,62,30.25,30.22,1,0,1,0.00
2013-1-28,48.0,38.3,34.0,31.0,28.9,24.0,90,74,39,29.99,29.94,0,0,0,0.00
2013-1-29,38.0,34.4,34.0,36.0,31.5,31.0,93,90,90,30.04,29.90,5,0,7,0.00
2013-1-30,61.0,48.0,35.0,58.0,45.9,33.0,94,93,89,29.90,29.46,10,3,23,0.00
2013-1-31,28.0,26.5,21.0,21.0,16.2,10.0,75,65,61,29.76,29.71,17,8,22,0.00
2013-2-1,32.0,24.3,19.0,19.0,13.0,8.0,77,62,43,30.15,29.70,9,4,32,0.00
2013-2-2,24.0,24.0,24.0,11.0,11.0,11.0,57,57,57,29.99,29.99,3,3,7,0.00
2013-2-3,30.0,27.8,24.0,23.0,21.4,20.0,83,77,70,29.84,29.74,3,1,6,0.00
2013-2-4,29.0,27.7,27.0,20.0,17.4,15.0,75,65,55,29.93,29.84,5,2,6,0.00
2013-2-5,31.0,30.5,30.0,27.0,26.7,26.0,87,86,85,29.92,29.85,3,1,6,0.00
2013-2-6,30.0,28.7,27.0,26.0,23.8,17.0,87,81,58,30.29,29.84,3,1,6,0.00
2013-2-7,34.0,32.3,31.0,21.0,19.0,17.0,67,58,54,30.23,30.15,0,0,3,0.00
2013-2-8,39.0,34.4,30.0,33.0,29.3,21.0,89,81,66,30.15,29.70,1,0,7,0.00
2013-2-9,37.0,26.0,21.0,25.0,17.4,14.0,83,70,51,30.29,29.81,6,4,10,0.00
2013-2-12,35.0,32.2,30.0,32.0,25.2,22.0,87,75,70,29.89,29.72,2,1,3,0.00
2013-2-13,43.0,33.1,26.0,31.0,25.7,20.0,81,74,63,29.87,29.63,5,1,7,0.00
2013-2-14,39.0,37.5,36.0,30.0,29.2,29.0,75,72,69,29.90,29.85,5,2,8,0.00
2013-2-15,49.0,40.5,35.0,32.0,29.7,28.0,84,66,47,29.97,29.84,8,3,16,0.00
2013-2-16,38.0,32.2,28.0,30.0,21.5,14.0,84,65,51,29.92,29.78,5,2,9,0.00
2013-2-17,31.0,25.1,22.0,18.0,11.2,5.0,67,56,41,30.04,29.75,6,4,12,0.00
2013-2-18,42.0,27.0,17.0,17.0,10.8,5.0,65,51,33,30.21,30.01,6,2,10,0.00
2013-2-19,37.0,33.6,30.0,33.0,24.8,15.0,88,71,48,30.01,29.61,9,2,16,0.00
2013-2-20,31.0,26.0,22.0,22.0,15.3,12.0,73,63,55,29.99,29.73,12,6,21,0.00
2013-2-21,41.0,28.5,22.0,23.0,17.3,12.0,70,63,49,30.34,29.96,6,3,14,0.06
2013-2-22,37.0,27.6,21.0,27.0,20.1,15.0,78,73,65,30.38,30.15,5,2,9,0.06
2013-2-23,38.0,37.0,36.0,35.0,34.0,33.0,91,89,88,30.02,29.86,1,0,2,0.00
2013-2-24,40.0,35.9,32.0,35.0,29.6,22.0,92,78,60,30.15,29.83,5,1,7,0.00
2013-2-25,51.0,37.2,29.0,33.0,26.5,22.0,77,66,45,30.31,30.06,6,2,9,0.00
2013-2-26,44.0,37.3,32.0,34.0,29.5,24.0,88,74,60,30.24,29.80,10,5,18,0.00
2013-2-27,42.0,39.5,36.0,39.0,36.7,33.0,92,90,86,29.80,29.58,7,3,13,0.00
2013-2-28,45.0,39.2,35.0,37.0,34.0,32.0,89,82,66,29.76,29.61,7,2,13,0.00
2013-3-1,41.0,37.3,34.0,33.0,30.2,25.0,85,75,64,29.90,29.70,5,2,7,0.00
2013-3-2,40.0,33.9,31.0,26.0,23.7,22.0,73,66,55,29.89,29.80,6,3,9,0.00
2013-3-3,38.0,32.1,28.0,24.0,21.2,19.0,73,64,53,29.89,29.79,5,3,9,0.00
2013-3-4,40.0,32.7,28.0,25.0,21.4,17.0,71,63,52,30.03,29.87,7,3,14,0.00
2013-3-5,50.0,36.5,31.0,32.0,25.4,23.0,73,65,46,30.09,29.91,5,2,10,0.00
2013-3-6,46.0,40.2,36.0,32.0,29.8,26.0,72,67,57,30.05,29.84,9,5,18,0.00
2013-3-7,46.0,39.7,34.0,29.0,26.4,23.0,67,59,47,30.18,30.05,7,4,12,0.00
2013-3-8,47.0,37.6,32.0,28.0,24.6,22.0,72,59,47,30.39,30.16,9,5,16,0.00
2013-3-9,65.0,43.8,30.0,33.0,25.5,21.0,73,51,26,30.38,30.27,3,1,7,0.00
2013-3-10,67.0,49.2,36.0,32.0,26.5,22.0,62,43,26,30.30,30.20,8,3,16,0.00
2013-3-11,57.0,50.1,43.0,48.0,37.7,29.0,78,63,46,30.23,29.93,9,5,23,0.00
2013-3-12,56.0,50.3,41.0,52.0,44.6,32.0,90,81,70,29.95,29.79,10,4,20,0.00
2013-3-13,49.0,39.0,32.0,32.0,28.0,19.0,75,65,43,30.07,29.86,10,4,18,0.00
2013-3-14,47.0,34.6,29.0,21.0,17.9,13.0,70,52,31,30.07,29.96,8,4,18,0.00
2013-3-15,46.0,36.2,26.0,32.0,23.9,14.0,69,61,53,30.08,29.77,10,3,17,0.00
2013-3-16,41.0,34.9,32.0,30.0,27.1,23.0,85,74,62,29.97,29.76,5,2,8,0.00
2013-3-17,40.0,34.6,30.0,28.0,24.9,19.0,86,68,54,30.30,29.95,3,1,6,0.00
2013-3-18,33.0,29.2,26.0,29.0,21.5,16.0,86,73,61,30.32,29.92,7,4,12,0.00
2013-3-19,49.0,38.5,32.0,37.0,30.6,20.0,90,75,39,29.92,29.72,14,3,24,0.00
2013-3-20,46.0,35.5,30.0,25.0,21.7,20.0,70,58,41,29.93,29.81,13,5,24,0.00
2013-3-21,40.0,30.6,25.0,21.0,17.5,11.0,70,59,39,29.93,29.75,4,1,10,0.00
2013-3-22,45.0,35.2,27.0,25.0,22.3,20.0,76,60,43,29.97,29.83,11,5,23,0.00
2013-3-23,52.0,37.6,30.0,27.0,22.8,19.0,69,56,35,30.03,29.94,5,3,12,0.00
2013-3-24,51.0,39.2,32.0,25.0,22.6,19.0,65,52,35,30.00,29.70,6,2,10,0.00
2013-3-25,40.0,37.1,35.0,34.0,29.8,23.0,89,76,53,29.70,29.57,6,3,12,0.00
2013-3-26,55.0,41.3,34.0,36.0,31.9,27.0,88,71,45,30.03,29.69,6,2,13,0.00
2013-3-27,53.0,42.0,35.0,32.0,29.3,27.0,74,61,43,30.11,29.94,7,2,12,0.00
2013-3-28,50.0,41.7,36.0,33.0,29.7,28.0,79,63,45,30.20,30.04,6,2,10,0.00
2013-3-29,54.0,44.9,38.0,37.0,31.0,27.0,72,58,42,30.26,30.13,3,2,8,0.00
2013-3-30,66.0,45.7,33.0,32.0,28.1,24.0,72,54,23,30.22,30.16,6,2,14,0.00
2013-3-31,49.0,47.0,44.0,44.0,39.6,31.0,88,76,55,29.99,29.75,5,2,8,0.00
2013-4-1,53.0,46.1,40.0,45.0,35.1,17.0,91,69,30,29.92,29.70,12,4,24,0.00
2013-4-2,46.0,38.3,32.0,19.0,16.2,14.0,47,41,32,30.16,30.03,7,3,16,0.00
2013-4-3,50.0,36.3,28.0,21.0,16.4,13.0,63,45,28,30.37,30.13,6,2,13,0.00
2013-4-4,58.0,39.9,26.0,27.0,19.4,15.0,64,45,27,30.40,30.09,5,1,8,0.00
2013-4-5,66.0,47.5,35.0,32.0,22.5,17.0,55,39,19,30.15,29.87,6,3,13,0.00
2013-4-7,71.0,60.9,46.0,42.0,37.6,26.0,56,42,35,30.13,29.96,10,4,20,0.00
2013-4-8,77.0,60.5,48.0,50.0,43.7,39.0,73,56,32,30.12,29.96,6,2,13,0.00
2013-4-9,84.0,74.8,72.0,54.0,51.1,49.0,51,44,30,30.06,29.91,6,2,9,0.00
2013-4-10,85.0,71.0,62.0,62.0,56.7,50.0,87,62,45,30.01,29.81,9,3,17,0.00
2013-4-11,62.0,54.8,51.0,58.0,49.7,46.0,90,83,77,29.99,29.85,7,2,13,0.00
2013-4-12,52.0,48.2,45.0,47.0,44.6,42.0,90,87,82,29.91,29.69,8,1,15,0.00
2013-4-13,60.0,48.5,42.0,45.0,37.9,35.0,91,68,47,30.01,29.82,11,3,20,0.00
2013-4-14,66.0,51.3,41.0,38.0,34.0,28.0,67,52,34,30.18,29.98,6,2,10,0.00
2013-4-15,70.0,55.5,48.0,50.0,39.8,33.0,59,55,47,30.34,30.16,8,4,15,0.00
2013-4-16,68.0,67.2,67.0,57.0,57.0,57.0,70,70,69,30.14,30.12,3,2,7,0.00
2013-4-17,73.0,66.8,52.0,53.0,41.2,33.0,64,40,34,30.34,30.27,5,3,8,0.00
2013-4-18,61.0,58.7,57.0,56.0,50.6,46.0,84,75,67,30.26,30.06,7,4,14,0.00
2013-4-19,69.0,68.7,68.0,60.0,59.9,59.0,75,74,74,29.82,29.79,9,9,16,0.00
2013-4-21,56.0,49.3,45.0,27.0,25.7,25.0,46,40,32,30.61,30.53,5,2,7,0.00
2013-4-22,67.0,50.0,40.0,38.0,31.2,25.0,68,50,32,30.60,30.43,8,5,16,0.00
2013-4-23,70.0,52.2,42.0,44.0,37.7,30.0,72,59,37,30.45,30.13,7,3,10,0.00
2013-4-24,75.0,57.2,45.0,59.0,48.2,40.0,88,73,50,30.13,29.76,8,4,16,0.03
2013-4-25,69.0,51.5,42.0,40.0,34.5,30.0,75,55,30,30.31,30.06,7,3,17,0.03
2013-4-26,71.0,53.3,42.0,37.0,33.4,28.0,72,50,22,30.50,30.31,6,2,13,0.00
2013-4-27,82.0,66.5,46.0,46.0,39.8,35.0,67,39,24,30.46,30.29,5,2,10,0.00
2013-4-28,72.0,60.7,50.0,48.0,40.8,-99.9,72,51,35,30.31,30.17,9,4,21,0.00
2013-4-29,59.0,56.9,55.0,56.0,49.9,40.0,90,78,55,30.24,30.11,6,4,14,0.00
2013-4-30,72.0,61.5,56.0,58.0,53.6,43.0,90,76,57,30.37,30.17,7,3,14,0.00
2013-5-1,83.0,62.9,49.0,43.0,37.7,33.0,57,41,21,30.48,30.34,6,3,14,0.00
2013-5-2,85.0,64.6,50.0,51.0,44.8,41.0,73,51,28,30.49,30.35,6,2,12,0.00
2013-5-3,81.0,64.3,55.0,49.0,43.8,37.0,66,49,31,30.43,30.32,7,4,14,0.00
2013-5-4,83.0,61.6,48.0,50.0,41.5,36.0,68,50,27,30.38,30.21,6,2,12,0.00
2013-5-5,82.0,60.8,45.0,46.0,38.8,33.0,74,48,19,30.35,30.19,6,3,15,0.00
2013-5-6,78.0,60.1,46.0,56.0,46.2,37.0,77,61,45,30.28,30.14,5,2,13,0.00
2013-5-7,82.0,65.6,54.0,57.0,52.9,49.0,83,65,40,30.17,30.06,8,4,16,0.00
2013-5-8,62.0,57.5,52.0,54.0,52.4,48.0,87,83,73,30.11,30.01,5,2,9,0.00
2013-5-9,65.0,56.8,49.0,58.0,51.7,46.0,92,84,68,30.05,29.96,5,2,10,0.00
2013-5-10,73.0,59.8,51.0,61.0,52.8,-99.9,92,82,63,30.13,29.93,5,1,12,0.00
2013-5-11,68.0,61.4,59.0,63.0,58.4,56.0,92,90,84,29.94,29.80,6,3,16,0.11
2013-5-13,49.0,47.2,47.0,27.0,26.0,26.0,44,44,41,30.19,30.09,2,1,8,0.00
2013-5-14,66.0,44.7,32.0,37.0,28.7,25.0,76,56,25,30.22,30.06,6,2,10,0.14
2013-5-15,73.0,58.2,47.0,57.0,46.5,37.0,79,65,54,30.09,29.72,7,3,14,0.14
2013-5-16,86.0,61.0,55.0,57.0,30.1,-99.9,88,59,24,29.98,29.80,5,1,12,0.00
2013-5-17,77.0,60.3,50.0,47.0,35.1,-99.9,64,49,31,30.24,29.98,2,1,6,0.00
2013-5-18,65.0,59.3,54.0,53.0,46.2,40.0,74,62,49,30.23,30.16,5,2,8,0.00
2013-5-19,64.0,59.8,57.0,57.0,54.1,50.0,85,82,75,30.21,30.10,6,3,10,0.00
2013-5-20,83.0,64.9,58.0,66.0,58.2,54.0,89,81,56,30.12,29.96,3,1,8,0.00
2013-5-21,90.0,74.4,62.0,71.0,64.5,59.0,90,73,47,29.97,29.81,7,2,13,0.00
2013-5-22,91.0,77.4,68.0,68.0,64.5,61.0,88,67,41,29.89,29.77,8,3,35,0.03
2013-5-23,76.0,73.5,60.0,64.0,60.7,57.0,91,64,59,29.85,29.72,5,0,9,0.28
2013-5-24,60.0,49.3,43.0,58.0,43.5,35.0,92,81,65,30.08,29.70,5,2,9,0.30
2013-5-25,50.0,46.6,40.0,37.0,34.6,34.0,81,64,54,30.11,30.04,5,3,7,0.03
2013-5-26,50.0,50.0,50.0,34.0,34.0,34.0,54,54,54,30.09,30.09,5,5,6,0.00
2013-5-27,68.0,61.4,57.0,44.0,42.9,41.0,62,51,37,30.15,30.12,5,2,9,0.00
2013-5-28,58.0,55.0,52.0,56.0,49.7,43.0,92,83,62,30.16,30.05,3,1,8,0.22
2013-5-29,85.0,69.1,57.0,69.0,60.7,55.0,94,77,52,30.13,30.00,8,2,18,0.03
2013-5-30,90.0,74.5,61.0,68.0,62.4,56.0,85,67,44,30.18,30.06,5,1,9,0.00
2013-5-31,93.0,76.6,66.0,70.0,63.8,59.0,85,67,38,30.18,29.98,7,2,13,0.00
2013-6-1,91.0,78.0,67.0,70.0,64.0,59.0,81,63,45,30.00,29.88,7,3,14,0.00
2013-6-2,86.0,79.6,71.0,67.0,63.9,-99.9,76,61,48,29.88,29.78,8,4,15,0.00
2013-6-3,76.0,68.8,58.0,63.0,57.1,45.0,78,67,54,29.96,29.81,2,0,5,0.00
2013-6-4,79.0,60.9,47.0,48.0,42.9,39.0,76,54,29,30.17,29.96,2,1,9,0.00
2013-6-5,82.0,63.1,48.0,52.0,45.0,39.0,76,53,34,30.19,30.03,4,1,10,0.00
2013-6-6,64.0,61.2,58.0,56.0,51.6,47.0,88,72,54,30.06,29.88,6,3,14,0.03
2013-6-7,63.0,61.5,60.0,60.0,58.0,56.0,90,88,86,29.88,29.70,6,2,12,0.03
2013-6-8,74.0,63.9,59.0,61.0,57.4,52.0,91,80,61,30.14,29.71,5,1,9,0.00
2013-6-9,84.0,66.4,53.0,59.0,54.8,49.0,88,69,42,30.20,30.06,3,1,6,0.03
2013-6-10,68.0,65.0,62.0,63.0,60.3,56.0,93,86,68,30.11,29.74,7,4,14,0.28
2013-6-11,73.0,66.1,62.0,65.0,62.2,60.0,93,87,73,29.78,29.73,7,3,13,0.25
2013-6-12,77.0,70.1,66.0,62.0,59.5,56.0,78,70,52,29.89,29.74,3,0,5,0.00
2013-6-13,70.0,64.2,57.0,66.0,59.4,54.0,91,85,69,29.82,29.45,7,3,17,0.28
2013-6-14,76.0,63.0,55.0,57.0,54.0,51.0,90,74,49,30.02,29.62,2,1,5,0.06
2013-6-15,81.0,66.2,55.0,59.0,54.2,50.0,87,68,43,30.04,29.95,4,1,8,0.06
2013-6-16,77.0,68.8,59.0,65.0,58.9,52.0,80,71,63,30.04,29.80,8,4,17,0.06
2013-6-17,89.0,72.7,62.0,65.0,61.0,57.0,88,70,35,29.98,29.86,6,2,13,0.00
2013-6-18,76.0,72.6,65.0,65.0,62.4,59.0,82,70,62,29.92,29.82,2,0,3,0.00
2013-6-19,80.0,66.8,54.0,54.0,49.4,47.0,79,56,34,30.15,29.97,3,0,7,1.02
2013-6-20,84.0,70.0,62.0,60.0,52.2,47.0,67,54,42,30.29,30.14,6,2,12,0.00
2013-6-22,85.0,79.3,71.0,67.0,64.7,62.0,72,61,52,30.22,30.08,6,3,12,0.00
2013-6-23,91.0,77.0,68.0,70.0,65.0,62.0,84,68,43,30.22,30.03,6,3,12,0.00
2013-6-24,88.0,72.4,65.0,74.0,65.6,61.0,88,79,63,30.11,30.03,2,1,9,0.03
2013-6-25,83.0,76.2,65.0,70.0,67.3,62.0,89,75,63,29.98,29.85,7,3,14,0.17
2013-6-26,78.0,70.3,64.0,68.0,64.6,61.0,90,82,69,29.94,29.81,4,1,7,0.14
2013-6-27,81.0,69.6,64.0,70.0,65.0,61.0,93,86,64,29.83,29.55,2,0,7,0.00
2013-6-28,81.0,69.4,65.0,70.0,65.0,62.0,94,86,65,29.57,29.48,2,0,3,0.00
2013-6-29,83.0,69.5,62.0,65.0,62.0,59.0,92,79,54,29.71,29.50,6,2,14,0.00
2013-6-30,87.0,71.7,62.0,72.0,64.9,59.0,91,80,60,29.89,29.70,8,2,14,0.00
2013-7-1,79.0,71.4,68.0,73.0,67.8,64.0,94,88,81,29.99,29.86,5,1,8,0.00
2013-7-2,80.0,73.2,69.0,74.0,69.3,66.0,95,88,76,30.17,29.97,0,0,43,0.00
2013-7-3,86.0,74.8,70.0,72.0,68.4,66.0,88,81,64,30.28,30.12,0,0,0,0.00
2013-7-4,91.0,77.9,70.0,74.0,69.6,66.0,89,77,53,30.30,30.14,6,2,13,0.00
2013-7-5,90.0,77.8,71.0,73.0,69.7,66.0,92,77,56,30.25,30.08,6,2,13,0.00
2013-7-6,92.0,76.9,70.0,73.0,69.8,67.0,92,80,53,30.22,30.05,5,1,9,0.00
2013-7-7,91.0,76.0,66.0,74.0,68.2,63.0,91,78,51,30.07,29.98,10,2,23,0.08
2013-7-8,81.0,68.6,64.0,73.0,63.7,-99.9,93,87,72,30.15,30.01,3,0,7,0.11
2013-7-9,82.0,71.1,66.0,72.0,66.5,63.0,91,86,70,30.15,29.92,9,1,16,0.06
2013-7-10,87.0,73.5,67.0,72.0,65.7,-99.9,92,80,61,29.94,29.68,8,3,15,0.00
2013-7-11,85.0,71.2,66.0,67.0,63.2,58.0,94,78,46,30.06,29.81,2,0,6,0.00
2013-7-12,77.0,68.1,63.0,66.0,60.5,57.0,85,77,66,30.06,29.95,2,0,6,0.00
2013-7-21,90.0,80.8,73.0,66.0,63.0,59.0,72,56,39,30.01,29.93,2,1,6,0.00
2013-7-22,82.0,72.4,68.0,76.0,66.8,62.0,94,83,71,29.98,29.78,3,1,15,0.00
2013-7-23,87.0,73.7,69.0,71.0,67.8,61.0,95,83,59,29.78,29.63,5,2,12,0.00
2013-7-24,77.0,69.0,65.0,62.0,57.5,53.0,84,68,50,29.96,29.68,2,1,43,0.00
2013-7-25,78.0,64.6,51.0,60.0,54.0,45.0,83,69,53,30.06,29.97,3,0,7,0.00
2013-7-26,64.0,62.1,62.0,56.0,54.1,54.0,76,76,75,30.09,30.01,3,0,7,0.00
2013-7-27,78.0,67.4,62.0,68.0,60.4,54.0,94,79,69,30.04,29.90,3,0,7,0.00
2013-7-28,79.0,69.1,65.0,69.0,64.8,59.0,94,87,68,29.98,29.88,1,0,3,0.00
2013-7-29,80.0,66.0,57.0,60.0,55.5,53.0,86,71,43,30.14,29.96,0,0,0,0.00
2013-7-30,78.0,65.6,55.0,59.0,55.2,50.0,84,71,51,30.28,30.13,0,0,0,0.00
2013-7-31,85.0,68.4,57.0,62.0,58.0,53.0,88,71,44,30.16,30.01,0,0,0,0.00
2013-8-1,75.0,72.2,67.0,69.0,66.5,63.0,86,82,78,29.88,29.81,0,0,0,0.00
2013-8-2,79.0,68.7,60.0,63.0,59.8,56.0,91,75,55,29.96,29.85,6,0,9,0.00
2013-8-3,79.0,70.9,64.0,68.0,64.2,59.0,92,80,67,29.98,29.87,6,2,10,0.00
2013-8-4,78.0,64.8,56.0,59.0,54.8,51.0,87,71,47,30.02,29.91,3,0,5,0.00
2013-8-5,77.0,63.7,55.0,58.0,52.9,50.0,83,69,45,30.11,30.01,3,0,8,0.00
2013-8-6,79.0,65.6,56.0,62.0,56.0,51.0,84,72,53,30.13,30.02,6,2,12,0.00
2013-8-7,72.0,67.2,64.0,66.0,62.4,58.0,89,84,78,30.07,29.99,5,2,9,0.00
2013-8-8,86.0,71.3,62.0,72.0,65.6,59.0,92,83,63,30.04,29.95,6,2,10,0.00
2013-8-9,81.0,73.8,70.0,76.0,70.0,67.0,94,88,78,29.96,29.83,5,2,9,0.00
2013-8-10,85.0,71.1,62.0,67.0,61.4,56.0,89,73,47,30.10,29.92,5,1,8,0.00
2013-8-11,82.0,67.6,59.0,63.0,57.6,51.0,82,71,51,30.14,30.02,4,1,8,0.00
2013-8-12,85.0,69.6,61.0,65.0,60.7,57.0,87,75,48,30.10,29.92,3,1,7,0.00
2013-8-13,84.0,68.5,63.0,71.0,60.8,-99.9,94,80,53,29.92,29.73,3,1,7,0.00
2013-8-14,70.0,60.5,52.0,54.0,49.3,44.0,78,67,51,30.14,29.84,2,1,6,0.00
2013-8-15,78.0,53.8,49.0,54.0,32.1,-99.9,84,64,41,30.17,30.07,3,1,8,0.00
2013-8-16,82.0,62.1,52.0,57.0,47.2,-99.9,86,66,38,30.22,30.11,3,1,8,0.00
2013-8-17,80.0,69.1,58.0,61.0,56.5,51.0,84,65,45,30.28,30.19,3,0,6,0.00
2013-8-18,73.0,64.2,61.0,61.0,55.0,-99.9,83,75,65,30.27,30.15,3,1,7,0.00
2013-8-19,80.0,60.7,58.0,64.0,42.4,-99.9,88,78,59,30.18,30.04,4,1,7,0.00
2013-8-20,86.0,68.7,60.0,65.0,57.9,-99.9,91,75,44,30.18,30.07,3,1,9,0.00
2013-8-24,83.0,71.4,60.0,59.0,56.4,53.0,80,60,44,30.36,30.27,2,1,7,0.00
2013-8-25,63.0,56.2,53.0,57.0,47.5,-99.9,87,79,73,30.39,30.31,0,0,1,0.00
2013-8-26,86.0,82.2,81.0,66.0,64.5,63.0,57,55,51,30.06,29.96,6,3,13,0.00
2013-8-27,84.0,72.3,68.0,70.0,65.5,64.0,87,80,59,29.96,29.91,2,0,5,0.00
2013-8-28,74.0,72.3,69.0,71.0,69.3,66.0,94,90,87,29.95,29.83,5,1,7,0.00
2013-8-29,87.0,71.9,65.0,71.0,65.9,63.0,93,83,57,30.06,29.89,3,1,7,0.00
2013-8-30,88.0,72.4,64.0,71.0,65.5,60.0,91,80,58,30.02,29.83,4,1,12,0.00
2013-8-31,82.0,74.0,69.0,71.0,67.6,65.0,88,81,69,29.85,29.82,6,3,13,0.00
2013-9-1,75.0,74.5,73.0,69.0,68.7,68.0,84,82,82,29.80,29.80,1,0,5,0.00
2013-9-2,86.0,73.0,66.0,72.0,67.1,62.0,93,82,62,29.84,29.70,7,1,16,0.00
2013-9-3,76.0,68.7,63.0,63.0,58.4,55.0,85,71,51,29.95,29.75,3,1,12,0.00
2013-9-4,82.0,66.1,56.0,59.0,54.9,51.0,85,69,44,30.05,29.95,6,2,12,0.00
2013-9-5,76.0,66.0,57.0,59.0,50.8,44.0,80,61,33,30.18,29.96,3,1,8,0.00
2013-9-6,70.0,58.2,46.0,46.0,43.0,39.0,80,59,39,30.27,30.12,3,1,7,0.00
2013-9-7,71.0,55.9,47.0,54.0,46.3,41.0,82,71,53,30.12,29.91,3,1,5,0.00
2013-9-8,72.0,63.9,60.0,58.0,51.1,-99.9,85,68,51,30.05,29.88,3,1,6,0.00
2013-9-9,71.0,60.9,46.0,56.0,48.4,40.0,81,65,53,30.21,30.10,7,2,17,0.00
2013-9-10,63.0,62.0,62.0,57.0,57.0,57.0,83,83,80,30.16,30.08,5,1,7,0.00
2013-9-11,77.0,71.2,68.0,68.0,66.7,65.0,93,86,67,30.10,30.01,3,1,9,0.00
2013-9-12,80.0,68.9,65.0,73.0,66.3,63.0,95,92,70,30.01,29.73,5,1,12,0.00
2013-9-13,69.0,60.8,53.0,64.0,54.1,45.0,95,80,52,29.97,29.72,2,1,5,0.00
2013-9-14,62.0,52.9,48.0,47.0,44.1,41.0,85,72,55,30.18,29.93,2,0,6,0.00
2013-9-15,70.0,52.4,40.0,52.0,42.0,-99.9,88,72,49,30.21,30.05,5,1,14,0.00
2013-9-16,59.0,55.8,50.0,54.0,49.9,40.0,89,81,69,30.37,30.03,2,0,5,0.00
2013-9-17,69.0,52.0,40.0,44.0,39.3,35.0,82,64,36,30.43,30.29,5,1,9,0.00
2013-9-18,55.0,45.6,43.0,42.0,39.4,38.0,83,78,70,30.39,30.17,2,0,2,0.00
2013-9-19,80.0,59.8,45.0,58.0,49.0,40.0,83,69,47,30.17,30.05,3,1,8,0.00
2013-9-20,81.0,64.8,53.0,60.0,54.5,48.0,86,71,47,30.06,29.93,7,2,14,0.00
2013-9-21,68.0,61.6,57.0,60.0,56.5,53.0,93,83,72,30.01,29.69,6,2,13,0.00
2013-9-22,61.0,54.4,50.0,56.0,46.2,-99.9,94,78,57,29.96,29.70,2,1,3,0.00
2013-9-23,64.0,53.0,48.0,46.0,41.7,38.0,76,66,48,30.14,29.95,2,1,5,0.00
2013-9-24,73.0,54.1,41.0,51.0,43.0,36.0,85,68,40,30.09,29.93,2,0,6,0.00
2013-9-25,75.0,56.8,44.0,52.0,45.3,39.0,82,67,41,30.03,29.88,2,0,6,0.00
2013-9-26,78.0,58.3,46.0,54.0,47.9,41.0,85,70,43,30.08,29.94,2,0,5,0.00
2013-9-27,75.0,64.5,55.0,53.0,50.3,48.0,79,61,44,30.29,30.08,3,1,7,0.00
2013-9-28,72.0,60.3,55.0,53.0,50.2,47.0,81,70,49,30.34,30.23,4,1,8,0.00
2013-10-3,78.0,75.6,74.0,61.0,60.7,60.0,65,60,55,30.07,30.02,3,2,7,0.00
2013-10-4,72.0,67.8,65.0,64.0,63.2,62.0,89,85,75,30.12,30.03,1,0,3,0.00
2013-10-5,79.0,69.1,63.0,68.0,63.1,60.0,92,82,63,30.10,29.99,3,1,8,0.00
2013-10-6,80.0,71.0,65.0,67.0,64.3,61.0,89,80,63,30.02,29.89,8,3,14,0.00
2013-10-7,71.0,61.8,49.0,64.0,57.3,44.0,93,85,78,30.01,29.72,7,2,17,0.00
2013-10-8,69.0,53.2,44.0,47.0,43.4,40.0,88,72,39,30.35,30.01,2,1,5,0.00
2013-10-9,62.0,52.5,44.0,45.0,41.3,39.0,84,67,47,30.40,30.26,5,1,9,0.00
2013-10-10,58.0,50.4,45.0,47.0,43.0,39.0,92,76,54,30.35,30.09,3,0,5,0.00
2013-10-11,62.0,53.7,48.0,60.0,50.9,46.0,95,91,69,30.10,30.01,3,0,6,0.00
2013-10-12,76.0,61.8,55.0,53.0,46.0,39.0,87,60,30,30.27,30.06,7,2,12,0.00
2013-10-13,70.0,59.5,55.0,52.0,46.5,-99.9,76,65,51,30.39,30.20,5,2,9,0.00
2013-10-14,67.0,57.2,50.0,53.0,49.0,45.0,83,74,57,30.32,30.21,3,1,7,0.00
2013-10-15,75.0,60.3,51.0,56.0,49.7,45.0,90,70,41,30.23,30.06,5,2,9,0.00
2013-10-16,62.0,58.0,55.0,54.0,48.0,41.0,84,70,58,30.06,29.84,4,2,10,0.00
2013-10-17,68.0,61.5,55.0,59.0,54.7,51.0,92,79,60,29.90,29.67,7,2,14,0.00
2013-10-18,61.0,52.3,47.0,52.0,44.6,42.0,91,76,51,29.97,29.80,7,4,18,0.00
2013-10-22,60.0,55.7,53.0,34.0,31.4,30.0,41,40,36,29.87,29.80,7,3,12,0.00
2013-10-23,46.0,41.7,37.0,35.0,32.4,29.0,79,70,56,29.83,29.67,4,1,9,0.00
2013-10-24,45.0,39.8,34.0,32.0,29.3,27.0,82,67,49,30.08,29.80,10,3,16,0.00
2013-10-25,54.0,43.7,36.0,35.0,31.4,26.0,80,62,48,30.25,30.01,5,2,9,0.00
2013-10-26,54.0,42.5,35.0,30.0,27.4,26.0,73,57,37,30.28,29.88,12,6,21,0.00
2013-10-27,50.0,43.7,38.0,34.0,29.4,-99.9,72,59,48,30.12,29.86,8,4,14,0.00
2013-10-28,61.0,41.9,31.0,39.0,29.8,-99.9,81,66,42,30.36,30.09,3,1,7,0.00
2013-10-29,57.0,46.8,37.0,36.0,33.1,30.0,79,60,45,30.39,30.28,3,0,7,0.00
2013-10-30,65.0,50.0,40.0,47.0,38.0,30.0,80,64,46,30.36,30.10,3,1,7,0.00
2013-10-31,59.0,53.5,50.0,56.0,50.0,44.0,92,88,80,30.16,29.68,3,1,7,0.00
2013-11-1,69.0,59.7,50.0,58.0,48.8,39.0,91,70,40,29.68,29.42,6,0,12,0.00
2013-11-2,55.0,50.1,46.0,44.0,40.2,39.0,77,69,59,29.80,29.63,6,1,10,0.00
2013-11-3,48.0,39.3,30.0,41.0,25.5,-99.9,78,61,38,30.52,29.80,6,3,9,0.00
2013-11-4,45.0,34.2,25.0,23.0,19.8,17.0,72,56,38,30.63,30.45,5,1,9,0.00
2013-11-5,53.0,42.0,34.0,38.0,30.4,19.0,74,63,54,30.59,30.41,6,2,10,0.00
2013-11-6,63.0,50.7,42.0,49.0,43.4,35.0,85,76,60,30.41,30.01,7,3,14,0.00
2013-11-7,43.0,39.7,36.0,35.0,32.1,28.0,79,74,72,30.03,29.96,3,2,7,0.00
2013-11-8,47.0,38.1,34.0,33.0,28.7,25.0,86,69,51,30.20,29.97,5,3,13,0.00
2013-11-9,47.0,39.0,31.0,30.0,25.2,-99.9,74,60,51,30.32,29.91,7,3,14,0.00
2013-11-10,50.0,44.7,39.0,33.0,29.1,27.0,62,54,46,30.11,29.85,7,2,13,0.00
2013-11-11,46.0,41.3,34.0,32.0,28.3,25.0,75,61,49,30.23,29.95,7,2,14,0.00
2013-11-12,45.0,32.1,26.0,34.0,19.8,13.0,84,61,37,30.31,29.96,0,0,0,0.00
2013-11-13,26.0,24.8,24.0,15.0,13.0,11.0,63,60,58,30.35,30.30,0,0,0,0.00
2013-11-16,56.0,52.0,46.0,42.0,35.5,-99.9,80,58,53,30.35,30.17,0,0,0,0.00
2013-11-17,57.0,52.2,48.0,53.0,48.0,42.0,89,85,81,30.17,29.62,9,3,29,0.00
2013-11-18,59.0,50.4,43.0,55.0,36.3,26.0,90,60,36,29.86,29.55,12,6,24,0.00
2013-11-19,43.0,36.8,29.0,28.0,22.7,18.0,65,56,45,30.35,29.85,5,3,9,0.00
2013-11-20,49.0,33.7,25.0,24.0,18.3,12.0,75,55,31,30.55,30.35,5,2,8,0.00
2013-11-21,43.0,36.6,27.0,32.0,23.3,10.0,69,58,43,30.52,30.31,6,2,10,0.00
2013-11-22,47.0,43.2,40.0,42.0,38.4,31.0,90,83,69,30.31,29.95,3,0,6,0.00
2013-11-23,43.0,33.0,21.0,33.0,20.7,-99.9,74,63,43,30.19,29.94,12,3,23,0.00
2013-11-24,30.0,21.8,17.0,6.0,3.9,2.0,56,46,32,30.35,30.09,6,4,13,0.00
2013-12-14,27.0,23.3,21.0,22.0,16.3,-99.9,88,78,64,30.46,29.83,10,3,18,0.00
2013-12-15,36.0,27.3,23.0,29.0,22.1,18.0,88,81,70,29.94,29.65,9,3,18,0.00
2013-12-16,29.0,20.2,14.0,17.0,8.5,5.0,70,60,47,30.26,29.91,10,4,17,0.00
2013-12-17,25.0,19.3,15.0,20.0,13.8,6.0,84,79,66,30.18,29.97,3,1,8,0.00
2013-12-18,34.0,24.0,16.0,22.0,17.1,12.0,87,75,59,30.24,30.00,8,4,14,0.00
2013-12-19,45.0,31.1,22.0,28.0,20.8,15.0,77,66,49,30.19,30.04,5,2,12,0.00
2013-12-20,43.0,36.7,31.0,32.0,27.8,23.0,78,70,62,30.10,29.97,6,2,13,0.00